createdAt,value
2022-11-18T00:00:15.710Z,100.00
2022-11-18T00:02:43.056Z,100.00
2022-11-18T00:05:10.001Z,100.00
2022-11-18T00:07:36.982Z,100.00
2022-11-18T00:10:04.617Z,100.00
2022-11-18T00:12:50.266Z,100.00
2022-11-18T00:15:17.236Z,100.00
2022-11-18T00:17:44.512Z,100.00
2022-11-18T00:20:11.842Z,100.00
2022-11-18T00:22:38.777Z,100.00
2022-11-18T00:25:06.461Z,100.00
2022-11-18T00:27:33.757Z,100.00
2022-11-18T00:30:00.726Z,100.00
2022-11-18T00:32:28.075Z,100.00
2022-11-18T00:34:54.976Z,100.00
2022-11-18T00:37:22.526Z,100.00
2022-11-18T00:39:49.819Z,100.00
2022-11-18T00:42:35.592Z,100.00
2022-11-18T00:45:02.905Z,100.00
2022-11-18T00:47:30.206Z,100.00
2022-11-18T00:49:57.513Z,100.00
2022-11-18T00:52:24.815Z,100.00
2022-11-18T00:54:52.314Z,100.00
2022-11-18T00:57:19.662Z,100.00
2022-11-18T00:59:46.584Z,100.00
2022-11-18T01:02:13.897Z,100.00
2022-11-18T01:04:41.205Z,100.00
2022-11-18T01:07:08.100Z,100.00
2022-11-18T01:09:35.487Z,100.00
2022-11-18T01:12:21.360Z,100.00
2022-11-18T01:14:48.261Z,100.00
2022-11-18T01:17:15.311Z,100.00
2022-11-18T01:19:42.354Z,100.00
2022-11-18T01:22:09.683Z,100.00
2022-11-18T01:24:36.615Z,100.00
2022-11-18T01:27:04.092Z,100.00
2022-11-18T01:29:31.417Z,100.00
2022-11-18T01:34:45.650Z,100.00
2022-11-18T01:37:12.956Z,100.00
2022-11-18T01:39:40.313Z,100.00
2022-11-18T01:42:16.251Z,100.00
2022-11-18T01:45:04.803Z,100.00
2022-11-18T01:47:45.613Z,100.00
2022-11-18T01:50:15.459Z,100.00
2022-11-18T01:52:45.243Z,100.00
2022-11-18T01:55:26.416Z,100.00
2022-11-18T01:58:16.239Z,100.00
2022-11-18T02:00:43.252Z,100.00
2022-11-18T02:03:10.593Z,100.00
2022-11-18T02:05:38.426Z,100.00
2022-11-18T02:08:07.696Z,100.00
2022-11-18T02:10:34.810Z,100.00
2022-11-18T02:13:02.682Z,100.00
2022-11-18T02:16:02.281Z,100.00
2022-11-18T02:18:45.553Z,100.00
2022-11-18T02:21:39.086Z,100.00
2022-11-18T02:24:36.605Z,100.00
2022-11-18T02:27:47.074Z,100.00
2022-11-18T02:30:20.708Z,100.00
2022-11-18T02:33:11.325Z,100.00
2022-11-18T02:36:03.687Z,100.00
2022-11-18T02:38:42.892Z,100.00
2022-11-18T02:41:15.916Z,100.00
2022-11-18T02:44:09.566Z,100.00
2022-11-18T02:46:39.779Z,100.00
2022-11-18T02:49:15.729Z,100.00
2022-11-18T02:51:45.118Z,100.00
2022-11-18T02:54:13.862Z,100.00
2022-11-18T02:56:42.390Z,100.00
2022-11-18T02:59:09.684Z,100.00
2022-11-18T03:01:37.372Z,100.00
2022-11-18T03:04:04.751Z,87.93
2022-11-18T03:06:33.660Z,76.88
2022-11-18T03:09:28.500Z,96.17
2022-11-18T03:12:16.865Z,100.00
2022-11-18T03:14:57.639Z,100.00
2022-11-18T03:17:33.069Z,80.85
2022-11-18T03:20:25.899Z,97.47
2022-11-18T03:23:30.712Z,100.00
2022-11-18T03:26:21.262Z,100.00
2022-11-18T03:29:01.584Z,100.00
2022-11-18T03:31:42.713Z,100.00
2022-11-18T03:34:20.820Z,100.00
2022-11-18T03:36:58.329Z,100.00
2022-11-18T03:39:30.719Z,100.00
2022-11-18T03:42:11.681Z,100.00
2022-11-18T03:44:48.268Z,100.00
2022-11-18T03:47:34.860Z,100.00
2022-11-18T03:50:17.723Z,100.00
2022-11-18T03:52:45.562Z,100.00
2022-11-18T03:55:22.057Z,100.00
2022-11-18T03:58:04.908Z,100.00
2022-11-18T04:00:42.547Z,100.00
2022-11-18T04:03:10.298Z,100.00
2022-11-18T04:05:41.295Z,100.00
2022-11-18T04:08:15.078Z,84.85
2022-11-18T04:10:59.819Z,100.00
2022-11-18T04:13:32.909Z,100.00
2022-11-18T04:16:00.454Z,100.00
2022-11-18T04:18:28.121Z,100.00
2022-11-18T04:20:58.118Z,100.00
2022-11-18T04:23:24.991Z,96.98
2022-11-18T04:25:51.856Z,93.92
2022-11-18T04:28:19.147Z,100.00
2022-11-18T04:30:46.420Z,100.00
2022-11-18T04:33:13.721Z,100.00
2022-11-18T04:35:40.574Z,100.00
2022-11-18T04:38:07.882Z,100.00
2022-11-18T04:40:35.145Z,100.00
2022-11-18T04:43:02.430Z,100.00
2022-11-18T04:45:29.511Z,100.00
2022-11-18T04:48:03.112Z,100.00
2022-11-18T04:50:30.540Z,100.00
2022-11-18T04:52:57.858Z,100.00
2022-11-18T04:55:27.150Z,100.00
2022-11-18T04:57:54.463Z,100.00
2022-11-18T05:00:22.381Z,100.00
2022-11-18T05:02:50.022Z,100.00
2022-11-18T05:05:16.991Z,100.00
2022-11-18T05:07:44.306Z,100.00
2022-11-18T05:10:11.718Z,100.00
2022-11-18T05:12:52.205Z,100.00
2022-11-18T05:15:22.392Z,100.00
2022-11-18T05:17:50.233Z,100.00
2022-11-18T05:20:17.571Z,100.00
2022-11-18T05:22:44.860Z,100.00
2022-11-18T05:25:12.144Z,100.00
2022-11-18T05:27:39.456Z,100.00
2022-11-18T05:30:09.345Z,100.00
2022-11-18T05:32:36.650Z,99.60
2022-11-18T05:35:04.069Z,100.00
2022-11-18T05:37:33.606Z,100.00
2022-11-18T05:40:00.948Z,100.00
2022-11-18T05:42:46.934Z,100.00
2022-11-18T05:45:15.937Z,100.00
2022-11-18T05:48:01.465Z,100.00
2022-11-18T05:50:28.818Z,100.00
2022-11-18T05:52:56.515Z,100.00
2022-11-18T05:55:29.051Z,100.00
2022-11-18T05:57:56.350Z,100.00
2022-11-18T06:00:23.727Z,100.00
2022-11-18T06:02:52.984Z,100.00
2022-11-18T06:05:22.220Z,100.00
2022-11-18T06:07:49.550Z,100.00
2022-11-18T06:10:28.561Z,100.00
2022-11-18T06:13:00.793Z,100.00
2022-11-18T06:15:31.526Z,100.00
2022-11-18T06:18:05.706Z,100.00
2022-11-18T06:20:35.790Z,100.00
2022-11-18T06:23:03.155Z,100.00
2022-11-18T06:25:30.721Z,100.00
2022-11-18T06:28:01.513Z,100.00
2022-11-18T06:30:28.432Z,100.00
2022-11-18T06:32:55.925Z,100.00
2022-11-18T06:35:23.334Z,100.00
2022-11-18T06:37:50.598Z,100.00
2022-11-18T06:40:18.024Z,100.00
2022-11-18T06:43:04.005Z,100.00
2022-11-18T06:45:31.453Z,100.00
2022-11-18T06:48:02.488Z,100.00
2022-11-18T06:50:30.418Z,100.00
2022-11-18T06:53:00.366Z,100.00
2022-11-18T06:55:27.946Z,100.00
2022-11-18T06:57:56.925Z,100.00
2022-11-18T07:00:24.316Z,100.00
2022-11-18T07:02:51.554Z,100.00
2022-11-18T07:05:18.903Z,100.00
2022-11-18T07:07:45.929Z,100.00
2022-11-18T07:10:13.396Z,100.00
2022-11-18T07:12:40.686Z,100.00
2022-11-18T07:15:08.413Z,100.00
2022-11-18T07:17:35.343Z,100.00
2022-11-18T07:20:03.385Z,100.00
2022-11-18T07:22:30.898Z,100.00
2022-11-18T07:24:58.588Z,100.00
2022-11-18T07:27:26.008Z,100.00
2022-11-18T07:29:53.105Z,100.00
2022-11-18T07:32:20.508Z,100.00
2022-11-18T07:34:47.949Z,100.00
2022-11-18T07:37:15.334Z,100.00
2022-11-18T07:39:42.757Z,100.00
2022-11-18T07:42:10.270Z,100.00
2022-11-18T07:44:37.685Z,100.00
2022-11-18T07:47:05.174Z,100.00
2022-11-18T07:49:32.599Z,100.00
2022-11-18T07:52:00.123Z,100.00
2022-11-18T07:54:27.558Z,100.00
2022-11-18T07:56:54.998Z,71.58
2022-11-18T07:59:22.468Z,74.68
2022-11-18T08:01:49.966Z,79.25
2022-11-18T08:04:17.981Z,85.90
2022-11-18T08:06:45.629Z,92.09
2022-11-18T08:09:13.116Z,90.79
2022-11-18T08:11:40.988Z,97.46
2022-11-18T08:14:08.868Z,90.47
2022-11-18T08:16:39.479Z,91.28
2022-11-18T08:19:12.650Z,91.43
2022-11-18T08:21:42.537Z,100.00
2022-11-18T08:24:10.467Z,93.35
2022-11-18T08:26:37.869Z,100.00
2022-11-18T08:29:05.173Z,100.00
2022-11-18T08:31:32.705Z,100.00
2022-11-18T08:34:03.828Z,95.06
2022-11-18T08:36:35.065Z,91.43
2022-11-18T08:39:06.017Z,89.81
2022-11-18T08:41:43.491Z,87.36
2022-11-18T08:44:15.072Z,88.56
2022-11-18T08:46:48.119Z,100.00
2022-11-18T08:49:16.126Z,100.00
2022-11-18T08:51:43.755Z,96.51
2022-11-18T08:54:11.058Z,100.00
2022-11-18T08:56:39.095Z,100.00
2022-11-18T08:59:06.784Z,100.00
2022-11-18T09:01:34.624Z,97.91
2022-11-18T09:04:01.703Z,96.88
2022-11-18T09:06:29.064Z,100.00
2022-11-18T09:08:57.364Z,100.00
2022-11-18T09:11:27.486Z,100.00
2022-11-18T09:16:47.151Z,100.00
2022-11-18T09:20:06.986Z,100.00
2022-11-18T09:22:37.795Z,100.00
2022-11-18T09:25:05.512Z,100.00
2022-11-18T09:27:32.857Z,100.00
2022-11-18T09:30:00.276Z,100.00
2022-11-18T09:32:27.840Z,100.00
2022-11-18T09:34:55.151Z,100.00
2022-11-18T09:37:22.513Z,100.00
2022-11-18T09:39:50.186Z,100.00
2022-11-18T09:42:23.534Z,100.00
2022-11-18T09:45:28.426Z,100.00
2022-11-18T09:48:00.941Z,100.00
2022-11-18T09:53:21.728Z,100.00
2022-11-18T09:55:51.159Z,100.00
2022-11-18T09:58:36.642Z,100.00
2022-11-18T10:01:14.104Z,100.00
2022-11-18T10:03:44.320Z,100.00
2022-11-18T10:06:23.848Z,100.00
2022-11-18T10:09:21.100Z,100.00
2022-11-18T10:12:25.714Z,100.00
2022-11-18T10:15:05.175Z,100.00
2022-11-18T10:17:46.892Z,100.00
2022-11-18T10:20:41.833Z,100.00
2022-11-18T10:23:18.712Z,100.00
2022-11-18T10:25:46.017Z,100.00
2022-11-18T10:28:29.603Z,100.00
2022-11-18T10:31:09.915Z,100.00
2022-11-18T10:33:38.115Z,100.00
2022-11-18T10:36:30.468Z,100.00
2022-11-18T10:39:15.752Z,100.00
2022-11-18T10:42:06.501Z,100.00
2022-11-18T10:44:40.017Z,100.00
2022-11-18T10:47:24.072Z,100.00
2022-11-18T10:49:52.965Z,100.00
2022-11-18T10:52:20.398Z,100.00
2022-11-18T10:55:20.013Z,100.00
2022-11-18T10:57:48.222Z,100.00
2022-11-18T11:00:42.577Z,100.00
2022-11-18T11:03:38.872Z,100.00
2022-11-18T11:06:23.281Z,100.00
2022-11-18T11:09:06.167Z,100.00
2022-11-18T11:11:40.326Z,100.00
2022-11-18T11:14:32.421Z,100.00
2022-11-18T11:17:15.919Z,100.00
2022-11-18T11:20:06.257Z,100.00
2022-11-18T11:22:33.636Z,100.00
2022-11-18T11:25:00.713Z,100.00
2022-11-18T11:31:24.047Z,100.00
2022-11-18T11:34:11.222Z,100.00
2022-11-18T11:37:04.438Z,100.00
2022-11-18T11:39:48.825Z,100.00
2022-11-18T11:42:45.807Z,100.00
2022-11-18T11:45:41.664Z,100.00
2022-11-18T11:48:56.263Z,100.00
2022-11-18T11:51:33.588Z,100.00
2022-11-18T11:54:41.895Z,100.00
2022-11-18T11:57:42.244Z,100.00
2022-11-18T12:00:15.314Z,100.00
2022-11-18T12:03:17.505Z,100.00
2022-11-18T12:05:45.884Z,100.00
2022-11-18T12:08:26.261Z,100.00
2022-11-18T12:11:03.742Z,100.00
2022-11-18T12:14:04.291Z,100.00
2022-11-18T12:17:03.800Z,100.00
2022-11-18T12:19:31.245Z,100.00
2022-11-18T12:22:05.150Z,100.00
2022-11-18T12:24:38.389Z,100.00
2022-11-18T12:27:30.279Z,100.00
2022-11-18T12:30:03.895Z,100.00
2022-11-18T12:32:43.333Z,100.00
2022-11-18T12:35:13.209Z,100.00
2022-11-18T12:37:45.006Z,100.00
2022-11-18T12:40:48.779Z,100.00
2022-11-18T12:43:50.745Z,100.00
2022-11-18T12:46:26.880Z,100.00
2022-11-18T12:48:54.226Z,100.00
2022-11-18T12:51:21.082Z,100.00
2022-11-18T12:53:54.698Z,100.00
2022-11-18T12:56:27.557Z,100.00
2022-11-18T12:58:57.921Z,100.00
2022-11-18T13:01:31.994Z,100.00
2022-11-18T13:04:19.662Z,100.00
2022-11-18T13:06:47.640Z,100.00
2022-11-18T13:09:23.080Z,100.00
2022-11-18T13:12:08.725Z,100.00
2022-11-18T13:14:59.822Z,100.00
2022-11-18T13:17:58.698Z,100.00
2022-11-18T13:20:35.395Z,100.00
2022-11-18T13:23:32.980Z,100.00
2022-11-18T13:26:06.821Z,100.00
2022-11-18T13:29:13.477Z,100.00
2022-11-18T13:32:10.069Z,100.00
2022-11-18T13:34:51.398Z,100.00
2022-11-18T13:37:28.578Z,100.00
2022-11-18T13:39:56.238Z,100.00
2022-11-18T13:42:32.540Z,100.00
2022-11-18T13:45:01.923Z,100.00
2022-11-18T13:47:39.510Z,100.00
2022-11-18T13:50:25.248Z,99.27
2022-11-18T13:53:34.171Z,100.00
2022-11-18T13:56:07.664Z,100.00
2022-11-18T13:59:10.276Z,100.00
2022-11-18T14:01:33.415Z,96.44
2022-11-18T14:04:08.137Z,100.00
2022-11-18T14:06:41.130Z,100.00
2022-11-18T14:09:25.858Z,100.00
2022-11-18T14:12:23.477Z,100.00
2022-11-18T14:14:50.856Z,100.00
2022-11-18T14:17:27.180Z,100.00
2022-11-18T14:19:58.012Z,100.00
2022-11-18T14:22:27.798Z,100.00
2022-11-18T14:25:21.041Z,100.00
2022-11-18T14:27:54.108Z,100.00
2022-11-18T14:30:36.762Z,97.36
2022-11-18T14:33:17.438Z,100.00
2022-11-18T14:35:58.192Z,100.00
2022-11-18T14:39:11.367Z,100.00
2022-11-18T14:41:49.181Z,99.17
2022-11-18T14:44:22.438Z,100.00
2022-11-18T14:49:59.676Z,100.00
2022-11-18T14:52:33.119Z,100.00
2022-11-18T14:55:02.385Z,97.92
2022-11-18T14:57:34.858Z,92.19
2022-11-18T15:00:18.159Z,97.69
2022-11-18T15:02:45.996Z,100.00
2022-11-18T15:06:01.775Z,100.00
2022-11-18T15:11:38.928Z,100.00
2022-11-18T15:17:35.762Z,100.00
2022-11-18T15:20:23.428Z,100.00
2022-11-18T15:22:53.919Z,100.00
2022-11-18T15:25:21.297Z,100.00
2022-11-18T15:27:48.926Z,100.00
2022-11-18T15:30:16.995Z,100.00
2022-11-18T15:32:44.765Z,100.00
2022-11-18T15:35:13.986Z,100.00
2022-11-18T15:37:43.075Z,100.00
2022-11-18T15:40:11.585Z,100.00
2022-11-18T15:42:48.836Z,100.00
2022-11-18T15:45:19.248Z,100.00
2022-11-18T15:47:47.199Z,100.00
2022-11-18T15:50:14.802Z,100.00
2022-11-18T15:52:42.253Z,100.00
2022-11-18T15:55:10.322Z,100.00
2022-11-18T15:57:38.623Z,100.00
2022-11-18T16:00:13.657Z,97.93
2022-11-18T16:02:41.022Z,91.36
2022-11-18T16:05:10.006Z,99.75
2022-11-18T16:07:37.734Z,93.78
2022-11-18T16:13:54.286Z,78.64
2022-11-18T16:16:25.828Z,84.54
2022-11-18T16:19:44.031Z,82.56
2022-11-18T16:22:20.993Z,87.94
2022-11-18T16:27:45.893Z,90.83
2022-11-18T16:31:00.001Z,85.14
2022-11-18T16:33:27.201Z,95.40
2022-11-18T16:35:54.569Z,96.01
2022-11-18T16:38:21.873Z,93.49
2022-11-18T16:40:56.552Z,86.13
2022-11-18T16:43:24.312Z,86.51
2022-11-18T16:45:55.309Z,84.88
2022-11-18T16:49:05.219Z,87.24
2022-11-18T16:51:51.750Z,84.33
2022-11-18T16:54:27.970Z,90.45
2022-11-18T16:56:57.782Z,84.61
2022-11-18T16:59:28.808Z,87.62
2022-11-18T17:01:58.669Z,81.66
2022-11-18T17:04:28.142Z,81.10
2022-11-18T17:06:55.997Z,79.45
2022-11-18T17:09:24.427Z,79.21
2022-11-18T17:11:54.241Z,81.60
2022-11-18T17:14:22.073Z,82.81
2022-11-18T17:16:50.305Z,82.10
2022-11-18T17:19:21.141Z,84.95
2022-11-18T17:21:49.173Z,84.46
2022-11-18T17:24:22.201Z,82.34
2022-11-18T17:26:50.812Z,86.08
2022-11-18T17:29:18.651Z,83.22
2022-11-18T17:31:46.211Z,81.51
2022-11-18T17:34:14.542Z,80.87
2022-11-18T17:36:42.316Z,86.66
2022-11-18T17:39:11.433Z,83.35
2022-11-18T17:41:57.707Z,81.18
2022-11-18T17:44:24.826Z,78.39
2022-11-18T17:46:52.356Z,80.01
2022-11-18T17:49:22.017Z,82.82
2022-11-18T17:51:51.052Z,82.64
2022-11-18T17:54:19.519Z,85.83
2022-11-18T17:56:47.210Z,84.20
2022-11-18T17:59:15.660Z,85.59
2022-11-18T18:01:44.243Z,82.67
2022-11-18T18:04:14.299Z,86.42
2022-11-18T18:06:41.461Z,92.17
2022-11-18T18:09:08.735Z,89.98
2022-11-18T18:11:36.156Z,90.15
2022-11-18T18:14:12.537Z,90.93
2022-11-18T18:16:51.019Z,89.08
2022-11-18T18:19:21.263Z,89.18
2022-11-18T18:21:48.962Z,99.44
2022-11-18T18:24:18.166Z,96.13
2022-11-18T18:26:45.902Z,95.28
2022-11-18T18:29:13.428Z,92.09
2022-11-18T18:31:40.841Z,91.81
2022-11-18T18:34:08.249Z,87.58
2022-11-18T18:36:35.391Z,91.80
2022-11-18T18:39:02.941Z,92.83
2022-11-18T18:41:31.215Z,93.93
2022-11-18T18:43:59.012Z,92.15
2022-11-18T18:46:33.947Z,96.85
2022-11-18T18:49:02.944Z,92.74
2022-11-18T18:51:36.352Z,100.00
2022-11-18T18:54:04.300Z,99.44
2022-11-18T18:56:31.890Z,94.90
2022-11-18T18:58:59.506Z,95.74
2022-11-18T19:01:28.256Z,99.67
2022-11-18T19:03:58.275Z,96.28
2022-11-18T19:06:51.639Z,100.00
2022-11-18T19:09:14.634Z,100.00
2022-11-18T19:12:00.586Z,100.00
2022-11-18T19:14:28.240Z,95.86
2022-11-18T19:16:56.313Z,100.00
2022-11-18T19:19:45.781Z,100.00
2022-11-18T19:22:15.414Z,100.00
2022-11-18T19:24:49.718Z,97.00
2022-11-18T19:27:19.134Z,99.64
2022-11-18T19:29:46.676Z,100.00
2022-11-18T19:32:14.480Z,90.16
2022-11-18T19:34:41.858Z,97.34
2022-11-18T19:37:09.220Z,90.29
2022-11-18T19:39:40.619Z,100.00
2022-11-18T19:42:10.782Z,100.00
2022-11-18T19:44:38.938Z,100.00
2022-11-18T19:47:06.420Z,100.00
2022-11-18T19:49:33.880Z,100.00
2022-11-18T19:52:01.617Z,93.71
2022-11-18T19:54:29.205Z,100.00
2022-11-18T19:56:56.690Z,90.77
2022-11-18T19:59:24.101Z,88.89
2022-11-18T20:01:51.576Z,93.20
2022-11-18T20:04:19.139Z,92.62
2022-11-18T20:06:46.719Z,91.52
2022-11-18T20:09:14.119Z,96.13
2022-11-18T20:11:42.934Z,94.45
2022-11-18T20:14:11.856Z,93.60
2022-11-18T20:16:39.416Z,100.00
2022-11-18T20:19:10.695Z,98.67
2022-11-18T20:21:39.071Z,93.85
2022-11-18T20:24:08.210Z,99.21
2022-11-18T20:26:38.363Z,99.38
2022-11-18T20:29:07.214Z,100.00
2022-11-18T20:31:36.281Z,100.00
2022-11-18T20:34:03.841Z,100.00
2022-11-18T20:36:36.349Z,96.99
2022-11-18T20:39:08.303Z,100.00
2022-11-18T20:41:36.473Z,100.00
2022-11-18T20:44:06.215Z,97.95
2022-11-18T20:46:34.750Z,97.30
2022-11-18T20:49:02.287Z,100.00
2022-11-18T20:51:29.997Z,100.00
2022-11-18T20:53:59.738Z,100.00
2022-11-18T20:56:28.098Z,100.00
2022-11-18T20:58:57.916Z,100.00
2022-11-18T21:01:28.536Z,93.51
2022-11-18T21:04:01.518Z,95.38
2022-11-18T21:06:31.139Z,93.37
2022-11-18T21:09:02.547Z,96.91
2022-11-18T21:11:32.131Z,93.27
2022-11-18T21:14:23.314Z,93.25
2022-11-18T21:16:52.896Z,100.00
2022-11-18T21:19:20.726Z,100.00
2022-11-18T21:21:49.179Z,99.89
2022-11-18T21:24:19.988Z,100.00
2022-11-18T21:26:49.788Z,100.00
2022-11-18T21:29:18.273Z,100.00
2022-11-18T21:31:47.046Z,100.00
2022-11-18T21:34:15.300Z,100.00
2022-11-18T21:36:50.415Z,100.00
2022-11-18T21:39:24.603Z,96.88
2022-11-18T21:41:57.009Z,97.78
2022-11-18T21:44:26.039Z,93.50
2022-11-18T21:46:56.847Z,100.00
2022-11-18T21:49:24.409Z,100.00
2022-11-18T21:51:51.866Z,98.70
2022-11-18T21:54:19.234Z,95.17
2022-11-18T21:56:46.724Z,100.00
2022-11-18T21:59:14.156Z,100.00
2022-11-18T22:01:41.678Z,97.11
2022-11-18T22:04:29.022Z,100.00
2022-11-18T22:06:56.423Z,95.68
2022-11-18T22:09:24.079Z,98.24
2022-11-18T22:11:51.577Z,90.21
2022-11-18T22:14:18.991Z,100.00
2022-11-18T22:16:46.329Z,100.00
2022-11-18T22:19:13.849Z,100.00
2022-11-18T22:21:41.511Z,100.00
2022-11-18T22:24:09.153Z,100.00
2022-11-18T22:26:36.521Z,100.00
2022-11-18T22:29:03.870Z,100.00
2022-11-18T22:31:31.183Z,100.00
2022-11-18T22:33:58.512Z,100.00
2022-11-18T22:36:27.080Z,100.00
2022-11-18T22:38:54.957Z,100.00
2022-11-18T22:41:44.246Z,100.00
2022-11-18T22:44:15.759Z,100.00
2022-11-18T22:46:45.058Z,100.00
2022-11-18T22:49:12.882Z,100.00
2022-11-18T22:51:40.834Z,100.00
2022-11-18T22:56:56.470Z,100.00
2022-11-18T22:59:24.500Z,100.00
2022-11-18T23:01:52.064Z,100.00
2022-11-18T23:04:19.530Z,100.00
2022-11-18T23:06:48.158Z,100.00
2022-11-18T23:09:15.566Z,100.00
2022-11-18T23:12:03.588Z,100.00
2022-11-18T23:14:31.428Z,100.00
2022-11-18T23:16:58.819Z,100.00
2022-11-18T23:19:32.143Z,100.00
2022-11-18T23:21:59.583Z,100.00
2022-11-18T23:24:26.924Z,99.53
2022-11-18T23:26:54.325Z,100.00
2022-11-18T23:29:22.221Z,96.56
2022-11-18T23:31:49.889Z,90.24
2022-11-18T23:34:17.522Z,94.71
2022-11-18T23:36:44.891Z,93.39
2022-11-18T23:39:12.978Z,100.00
2022-11-18T23:41:40.689Z,100.00
2022-11-18T23:44:08.010Z,100.00
2022-11-18T23:46:36.043Z,100.00
2022-11-18T23:49:07.071Z,96.71
2022-11-18T23:51:34.392Z,99.20
2022-11-18T23:54:01.814Z,97.83
2022-11-18T23:56:30.883Z,99.62
2022-11-18T23:59:00.196Z,100.00
